Time;durP1;ratioP1;P1;durP2;ratioP2;P2;SDS_P1;SDS_P2;PMS_P1;PMS_P2;Temp;Humidity;BMP_temperature;BMP_pressure;BME280_temperature;BME280_humidity;BME280_pressure;Samples;Min_cycle;Max_cycle;Signal;HPM_P1;HPM_P2
2022/01/17 00:01:28;;;;;;;;;;;;;;;;;;5051437;28;19924;-60
2022/01/17 00:03:55;;;;;;;;;;;;;;;;;;5052218;28;19975;-59
2022/01/17 00:06:21;;;;;;;;;;;;;;;;;;5051416;28;19974;-60
2022/01/17 00:08:48;;;;;;;;;;;;;;;;;;5052181;28;19971;-59
2022/01/17 00:11:16;;;;;;;;;;;;;;;;;;5051920;28;19990;-59
2022/01/17 00:13:42;;;;;;;;;;;;;;;;;;5051302;28;19920;-60
2022/01/17 00:16:11;;;;;;;;;;;;;;;;;;5052116;28;20410;-59
2022/01/17 00:21:23;;;;;;;;;;;;;;;;;;5025493;28;19927;-60
2022/01/17 00:23:49;;;;;;;;;;;;;;;;;;5051643;28;19986;-59
2022/01/17 00:26:15;;;;;;;;;;;;;;;;;;5052096;28;19927;-59
2022/01/17 00:28:42;;;;;;;;;;;;;;;;;;5051336;28;19924;-59
2022/01/17 00:31:08;;;;;;;;;;;;;;;;;;5052024;28;19921;-59
2022/01/17 00:33:34;;;;;;;;;;;;;;;;;;5051525;28;19921;-59
2022/01/17 00:36:00;;;;;;;;;;;;;;;;;;5050961;28;19975;-59
2022/01/17 00:38:26;;;;;;;;;;;;;;;;;;5051573;28;19920;-59
2022/01/17 00:40:52;;;;;;;;;;;;;;;;;;5051616;28;19921;-59
2022/01/17 00:43:18;;;;;;;;;;;;;;;;;;5050930;28;19924;-59
2022/01/17 00:45:45;;;;;;;;;;;;;;;;;;5051723;28;19920;-59
2022/01/17 00:48:11;;;;;;;;;;;;;;;;;;5051702;28;19920;-59
2022/01/17 00:50:37;;;;;;;;;;;;;;;;;;5050841;28;19950;-60
2022/01/17 00:53:04;;;;;;;;;;;;;;;;;;5051102;28;19928;-60
2022/01/17 00:55:30;;;;;;;;;;;;;;;;;;5051512;28;19947;-59
2022/01/17 00:57:56;;;;;;;;;;;;;;;;;;5051069;28;19924;-59
2022/01/17 01:00:23;;;;;;;;;;;;;;;;;;5051452;28;20374;-59
2022/01/17 01:02:49;;;;;;;;;;;;;;;;;;5050642;28;19920;-59
2022/01/17 01:05:16;;;;;;;;;;;;;;;;;;5051273;28;19959;-59
2022/01/17 01:07:42;;;;;;;;;;;;;;;;;;5051187;28;20522;-59
2022/01/17 01:10:10;;;;;;;;;;;;;;;;;;5051014;28;19974;-59
2022/01/17 01:12:36;;;;;;;;;;;;;;;;;;5051240;28;20360;-59
2022/01/17 01:15:05;;;;;;;;;;;;;;;;;;5051058;28;20339;-59
2022/01/17 01:17:34;;;;;;;;;;;;;;;;;;5050701;28;19975;-59
2022/01/17 01:20:09;;;;;;;;;;;;;;;;;;5051004;28;19947;-59
2022/01/17 01:28:18;;;;;;;;;;;;;;;;;;4989534;28;19932;-59
2022/01/17 01:30:48;;;;;;;;;;;;;;;;;;4988569;28;19922;-59
2022/01/17 01:33:19;;;;;;;;;;;;;;;;;;5000361;28;19921;-59
2022/01/17 01:35:47;;;;;;;;;;;;;;;;;;5031208;28;19928;-59
2022/01/17 01:38:13;;;;;;;;;;;;;;;;;;5030473;28;20020;-59
2022/01/17 01:40:39;;;;;;;;;;;;;;;;;;5031210;28;19928;-59
2022/01/17 01:43:06;;;;;;;;;;;;;;;;;;5031159;28;19967;-60
2022/01/17 01:45:32;;;;;;;;;;;;;;;;;;5032707;28;19928;-59
2022/01/17 01:47:58;;;;;;;;;;;;;;;;;;5034901;28;19983;-59
2022/01/17 01:50:24;;;;;;;;;;;;;;;;;;5034856;28;19928;-59
2022/01/17 01:52:50;;;;;;;;;;;;;;;;;;5033967;28;19924;-59
2022/01/17 01:55:16;;;;;;;;;;;;;;;;;;5034800;28;19921;-59
2022/01/17 01:57:42;;;;;;;;;;;;;;;;;;5034696;28;19921;-59
2022/01/17 02:00:08;;;;;;;;;;;;;;;;;;5041674;28;19927;-59
2022/01/17 02:02:35;;;;;;;;;;;;;;;;;;5054881;28;19963;-59
2022/01/17 02:05:01;;;;;;;;;;;;;;;;;;5054130;28;19925;-59
2022/01/17 02:07:27;;;;;;;;;;;;;;;;;;5053902;28;19921;-59
2022/01/17 02:09:53;;;;;;;;;;;;;;;;;;5054194;28;19929;-59
2022/01/17 02:12:21;;;;;;;;;;;;;;;;;;5054666;28;19924;-59
2022/01/17 02:14:47;;;;;;;;;;;;;;;;;;5053422;28;19928;-59
2022/01/17 02:17:13;;;;;;;;;;;;;;;;;;5054347;28;20422;-59
2022/01/17 02:19:45;;;;;;;;;;;;;;;;;;5054615;28;19929;-59
2022/01/17 02:22:11;;;;;;;;;;;;;;;;;;5053672;28;20007;-59
2022/01/17 02:24:37;;;;;;;;;;;;;;;;;;5054174;28;19921;-59
2022/01/17 02:27:03;;;;;;;;;;;;;;;;;;5053405;28;19921;-59
2022/01/17 02:29:30;;;;;;;;;;;;;;;;;;5054336;28;19921;-59
2022/01/17 02:31:56;;;;;;;;;;;;;;;;;;5053718;28;19935;-59
2022/01/17 02:34:22;;;;;;;;;;;;;;;;;;5053515;28;19991;-59
2022/01/17 02:36:48;;;;;;;;;;;;;;;;;;5053655;28;19921;-59
2022/01/17 02:39:14;;;;;;;;;;;;;;;;;;5053861;28;19981;-59
2022/01/17 02:41:42;;;;;;;;;;;;;;;;;;5053029;28;20355;-59
2022/01/17 02:44:08;;;;;;;;;;;;;;;;;;5054230;28;19927;-59
2022/01/17 02:46:34;;;;;;;;;;;;;;;;;;5053946;28;19921;-60
2022/01/17 02:49:00;;;;;;;;;;;;;;;;;;5052979;28;19924;-60
2022/01/17 02:51:26;;;;;;;;;;;;;;;;;;5053534;28;20390;-60
2022/01/17 02:53:52;;;;;;;;;;;;;;;;;;5053577;28;19928;-60
2022/01/17 02:56:19;;;;;;;;;;;;;;;;;;5052774;28;19925;-59
2022/01/17 02:58:45;;;;;;;;;;;;;;;;;;5053761;28;19921;-59
2022/01/17 03:01:11;;;;;;;;;;;;;;;;;;5053428;28;19920;-59
2022/01/17 03:03:37;;;;;;;;;;;;;;;;;;5052965;28;19987;-59
2022/01/17 03:06:03;;;;;;;;;;;;;;;;;;5053017;28;19967;-59
2022/01/17 03:08:29;;;;;;;;;;;;;;;;;;5053516;28;19982;-59
2022/01/17 03:10:55;;;;;;;;;;;;;;;;;;5052490;28;19928;-59
2022/01/17 03:13:21;;;;;;;;;;;;;;;;;;5053488;28;19924;-59
2022/01/17 03:15:47;;;;;;;;;;;;;;;;;;5053253;28;19983;-59
2022/01/17 03:18:13;;;;;;;;;;;;;;;;;;5052645;28;19947;-59
2022/01/17 03:20:39;;;;;;;;;;;;;;;;;;5053134;28;19928;-59
2022/01/17 03:23:06;;;;;;;;;;;;;;;;;;5052935;28;19924;-59
2022/01/17 03:25:32;;;;;;;;;;;;;;;;;;5052799;28;19921;-59
2022/01/17 03:27:58;;;;;;;;;;;;;;;;;;5052750;28;19920;-59
2022/01/17 03:30:24;;;;;;;;;;;;;;;;;;5052481;28;19921;-59
2022/01/17 03:32:50;;;;;;;;;;;;;;;;;;5052522;28;19920;-59
2022/01/17 03:35:16;;;;;;;;;;;;;;;;;;5052780;28;19979;-59
2022/01/17 03:37:42;;;;;;;;;;;;;;;;;;5051731;28;19920;-59
2022/01/17 03:40:08;;;;;;;;;;;;;;;;;;5053003;28;19921;-60
2022/01/17 03:42:35;;;;;;;;;;;;;;;;;;5052945;28;20366;-59
2022/01/17 03:45:03;;;;;;;;;;;;;;;;;;5051888;28;20832;-60
2022/01/17 03:47:29;;;;;;;;;;;;;;;;;;5052809;28;19970;-59
2022/01/17 03:49:55;;;;;;;;;;;;;;;;;;5052543;28;19986;-59
2022/01/17 03:52:22;;;;;;;;;;;;;;;;;;5051884;28;19972;-59
2022/01/17 03:54:48;;;;;;;;;;;;;;;;;;5052567;28;20003;-59
2022/01/17 03:57:14;;;;;;;;;;;;;;;;;;5052721;28;19936;-59
2022/01/17 03:59:40;;;;;;;;;;;;;;;;;;5051754;28;20347;-59
2022/01/17 04:02:06;;;;;;;;;;;;;;;;;;5052293;28;19925;-60
2022/01/17 04:04:32;;;;;;;;;;;;;;;;;;5052335;28;20345;-59
2022/01/17 04:06:58;;;;;;;;;;;;;;;;;;5050813;28;19974;-60
2022/01/17 04:09:24;;;;;;;;;;;;;;;;;;5051976;28;20421;-60
2022/01/17 04:11:50;;;;;;;;;;;;;;;;;;5052339;28;19921;-59
2022/01/17 04:14:17;;;;;;;;;;;;;;;;;;5051323;28;19921;-59
2022/01/17 04:16:43;;;;;;;;;;;;;;;;;;5052037;28;20368;-59
2022/01/17 04:19:11;;;;;;;;;;;;;;;;;;5051950;28;19921;-59
2022/01/17 04:21:37;;;;;;;;;;;;;;;;;;5051559;28;20003;-59
2022/01/17 04:24:03;;;;;;;;;;;;;;;;;;5051916;28;19920;-59
2022/01/17 04:26:29;;;;;;;;;;;;;;;;;;5051908;28;20273;-59
2022/01/17 04:28:55;;;;;;;;;;;;;;;;;;5051104;28;19966;-59
2022/01/17 04:31:21;;;;;;;;;;;;;;;;;;5052049;28;20545;-59
2022/01/17 04:33:47;;;;;;;;;;;;;;;;;;5050681;28;19924;-59
2022/01/17 04:36:13;;;;;;;;;;;;;;;;;;5051835;28;20335;-59
2022/01/17 04:38:39;;;;;;;;;;;;;;;;;;5051805;28;19925;-59
2022/01/17 04:41:13;;;;;;;;;;;;;;;;;;5050687;28;20360;-59
2022/01/17 04:43:58;;;;;;;;;;;;;;;;;;5051756;28;20015;-59
2022/01/17 04:46:24;;;;;;;;;;;;;;;;;;5051682;28;19959;-59
2022/01/17 04:48:50;;;;;;;;;;;;;;;;;;5050713;28;19921;-59
2022/01/17 04:51:16;;;;;;;;;;;;;;;;;;5051670;28;19921;-59
2022/01/17 04:53:53;;;;;;;;;;;;;;;;;;5051424;28;19990;-59
2022/01/17 04:56:20;;;;;;;;;;;;;;;;;;5050923;28;19921;-59
2022/01/17 04:58:46;;;;;;;;;;;;;;;;;;5051166;28;20043;-59
2022/01/17 05:01:12;;;;;;;;;;;;;;;;;;5051426;28;19920;-59
2022/01/17 05:03:38;;;;;;;;;;;;;;;;;;5050960;28;19974;-59
2022/01/17 05:06:04;;;;;;;;;;;;;;;;;;5051147;28;19974;-60
2022/01/17 05:08:30;;;;;;;;;;;;;;;;;;5051558;28;19995;-59
2022/01/17 05:10:56;;;;;;;;;;;;;;;;;;5050380;28;19929;-60
2022/01/17 05:13:30;;;;;;;;;;;;;;;;;;5051311;28;19991;-60
2022/01/17 05:16:06;;;;;;;;;;;;;;;;;;5050191;28;20331;-59
2022/01/17 05:21:15;;;;;;;;;;;;;;;;;;5054413;28;19983;-59
2022/01/17 05:23:42;;;;;;;;;;;;;;;;;;5054684;28;19920;-59
2022/01/17 05:26:08;;;;;;;;;;;;;;;;;;5055373;28;19920;-59
2022/01/17 05:28:34;;;;;;;;;;;;;;;;;;5055494;28;19921;-59
2022/01/17 05:31:00;;;;;;;;;;;;;;;;;;5054320;28;19967;-60
2022/01/17 05:33:26;;;;;;;;;;;;;;;;;;5055213;28;20378;-59
2022/01/17 05:35:52;;;;;;;;;;;;;;;;;;5054799;28;19974;-59
2022/01/17 05:38:19;;;;;;;;;;;;;;;;;;5054258;28;20364;-59
2022/01/17 05:40:45;;;;;;;;;;;;;;;;;;5054785;28;19924;-59
2022/01/17 05:43:11;;;;;;;;;;;;;;;;;;5055037;28;20546;-59
2022/01/17 05:45:37;;;;;;;;;;;;;;;;;;5054256;28;19967;-59
2022/01/17 05:48:04;;;;;;;;;;;;;;;;;;5054619;28;19921;-60
2022/01/17 05:50:31;;;;;;;;;;;;;;;;;;5054835;28;19929;-60
2022/01/17 05:52:57;;;;;;;;;;;;;;;;;;5053803;28;19920;-60
2022/01/17 05:55:23;;;;;;;;;;;;;;;;;;5054947;28;19921;-60
2022/01/17 05:57:49;;;;;;;;;;;;;;;;;;5054610;28;19921;-60
2022/01/17 06:00:15;;;;;;;;;;;;;;;;;;5053860;28;19989;-60
2022/01/17 06:02:41;;;;;;;;;;;;;;;;;;5054700;28;19975;-60
2022/01/17 06:05:07;;;;;;;;;;;;;;;;;;5053745;28;20392;-60
2022/01/17 06:07:33;;;;;;;;;;;;;;;;;;5054391;28;19928;-60
2022/01/17 06:09:59;;;;;;;;;;;;;;;;;;5054576;28;19924;-60
2022/01/17 06:12:25;;;;;;;;;;;;;;;;;;5053758;28;19924;-60
2022/01/17 06:14:51;;;;;;;;;;;;;;;;;;5054212;28;19921;-60
2022/01/17 06:17:17;;;;;;;;;;;;;;;;;;5054298;28;19924;-60
2022/01/17 06:19:44;;;;;;;;;;;;;;;;;;5053358;28;19920;-60
2022/01/17 06:22:10;;;;;;;;;;;;;;;;;;5053992;28;20437;-60
2022/01/17 06:24:36;;;;;;;;;;;;;;;;;;5054527;28;20007;-60
2022/01/17 06:27:02;;;;;;;;;;;;;;;;;;5053141;28;19928;-60
2022/01/17 06:29:29;;;;;;;;;;;;;;;;;;5054295;28;20359;-60
2022/01/17 06:31:55;;;;;;;;;;;;;;;;;;5053049;28;19975;-60
2022/01/17 06:34:21;;;;;;;;;;;;;;;;;;5053429;28;20546;-60
2022/01/17 06:36:48;;;;;;;;;;;;;;;;;;5053563;28;19924;-60
2022/01/17 06:39:14;;;;;;;;;;;;;;;;;;5054024;28;19928;-60
2022/01/17 06:41:40;;;;;;;;;;;;;;;;;;5053140;28;19921;-60
2022/01/17 06:44:06;;;;;;;;;;;;;;;;;;5053822;28;19920;-60
2022/01/17 06:46:32;;;;;;;;;;;;;;;;;;5053921;28;20020;-60
2022/01/17 06:48:58;;;;;;;;;;;;;;;;;;5052707;28;19974;-60
2022/01/17 06:51:24;;;;;;;;;;;;;;;;;;5053515;28;19966;-60
2022/01/17 06:53:51;;;;;;;;;;;;;;;;;;5053741;28;19925;-60
2022/01/17 06:56:17;;;;;;;;;;;;;;;;;;5053109;28;19948;-60
2022/01/17 06:58:44;;;;;;;;;;;;;;;;;;5053366;28;19970;-60
2022/01/17 07:01:10;;;;;;;;;;;;;;;;;;5053502;28;19928;-60
2022/01/17 07:03:37;;;;;;;;;;;;;;;;;;5052571;28;19924;-60
2022/01/17 07:06:03;;;;;;;;;;;;;;;;;;5052917;28;19927;-60
2022/01/17 07:08:29;;;;;;;;;;;;;;;;;;5052763;28;19966;-60
2022/01/17 07:10:55;;;;;;;;;;;;;;;;;;5053323;28;19920;-60
2022/01/17 07:13:21;;;;;;;;;;;;;;;;;;5053214;28;20346;-60
2022/01/17 07:15:47;;;;;;;;;;;;;;;;;;5052285;28;19974;-60
2022/01/17 07:18:14;;;;;;;;;;;;;;;;;;5053071;28;19920;-60
2022/01/17 07:20:40;;;;;;;;;;;;;;;;;;5053494;28;19920;-60
2022/01/17 07:23:06;;;;;;;;;;;;;;;;;;5052038;28;20364;-60
2022/01/17 07:25:32;;;;;;;;;;;;;;;;;;5053285;28;19978;-60
2022/01/17 07:27:58;;;;;;;;;;;;;;;;;;5052654;28;20368;-60
2022/01/17 07:30:26;;;;;;;;;;;;;;;;;;5052350;28;19975;-60
2022/01/17 07:32:52;;;;;;;;;;;;;;;;;;5052359;28;19920;-60
2022/01/17 07:35:18;;;;;;;;;;;;;;;;;;5052984;28;19921;-60
2022/01/17 07:37:44;;;;;;;;;;;;;;;;;;5051981;28;19921;-60
2022/01/17 07:40:10;;;;;;;;;;;;;;;;;;5052882;28;19967;-60
2022/01/17 07:42:36;;;;;;;;;;;;;;;;;;5051897;28;20503;-60
2022/01/17 07:45:09;;;;;;;;;;;;;;;;;;5051820;28;19925;-60
2022/01/17 07:47:41;;;;;;;;;;;;;;;;;;5052868;28;20350;-60
2022/01/17 07:50:08;;;;;;;;;;;;;;;;;;5052859;28;19928;-60
2022/01/17 07:52:34;;;;;;;;;;;;;;;;;;5052197;28;19928;-60
2022/01/17 07:55:00;;;;;;;;;;;;;;;;;;5052467;28;19921;-60
2022/01/17 07:57:26;;;;;;;;;;;;;;;;;;5052803;28;19921;-60
2022/01/17 07:59:52;;;;;;;;;;;;;;;;;;5051475;28;19975;-60
2022/01/17 08:02:18;;;;;;;;;;;;;;;;;;5052773;28;19990;-60
2022/01/17 08:04:44;;;;;;;;;;;;;;;;;;5051533;28;19928;-60
2022/01/17 08:07:10;;;;;;;;;;;;;;;;;;5052555;28;19921;-60
2022/01/17 08:09:36;;;;;;;;;;;;;;;;;;5052258;28;19947;-60
2022/01/17 08:12:02;;;;;;;;;;;;;;;;;;5051496;28;19925;-60
2022/01/17 08:14:28;;;;;;;;;;;;;;;;;;5052352;28;19920;-58
2022/01/17 08:16:54;;;;;;;;;;;;;;;;;;5052360;28;19974;-59
2022/01/17 08:19:23;;;;;;;;;;;;;;;;;;5051758;28;19979;-58
2022/01/17 08:21:51;;;;;;;;;;;;;;;;;;5052094;28;19920;-58
2022/01/17 08:24:17;;;;;;;;;;;;;;;;;;5052285;28;19920;-59
2022/01/17 08:26:44;;;;;;;;;;;;;;;;;;5051224;28;19979;-59
2022/01/17 08:29:10;;;;;;;;;;;;;;;;;;5052090;28;19966;-58
2022/01/17 08:31:36;;;;;;;;;;;;;;;;;;5052207;28;19921;-58
2022/01/17 08:34:02;;;;;;;;;;;;;;;;;;5051270;28;19978;-58
2022/01/17 08:36:28;;;;;;;;;;;;;;;;;;5052024;28;19925;-58
2022/01/17 08:38:54;;;;;;;;;;;;;;;;;;5051842;28;19921;-57
2022/01/17 08:41:20;;;;;;;;;;;;;;;;;;5051150;28;19982;-58
2022/01/17 08:43:46;;;;;;;;;;;;;;;;;;5049891;28;19925;-59
2022/01/17 08:46:13;;;;;;;;;;;;;;;;;;5051999;28;20260;-59
2022/01/17 08:48:39;;;;;;;;;;;;;;;;;;5051407;28;19920;-60
2022/01/17 08:51:05;;;;;;;;;;;;;;;;;;5051337;28;20441;-59
2022/01/17 08:53:32;;;;;;;;;;;;;;;;;;5051614;28;19967;-59
2022/01/17 08:55:58;;;;;;;;;;;;;;;;;;5050494;28;20295;-58
2022/01/17 08:58:24;;;;;;;;;;;;;;;;;;5051640;28;19924;-58
2022/01/17 09:00:50;;;;;;;;;;;;;;;;;;5050773;28;19924;-58
2022/01/17 09:03:16;;;;;;;;;;;;;;;;;;5051436;28;19921;-58
2022/01/17 09:05:42;;;;;;;;;;;;;;;;;;5051126;28;19974;-58
2022/01/17 09:08:09;;;;;;;;;;;;;;;;;;5050780;28;19921;-58
2022/01/17 09:10:35;;;;;;;;;;;;;;;;;;5051456;28;19920;-58
2022/01/17 09:13:01;;;;;;;;;;;;;;;;;;5051606;28;19940;-57
2022/01/17 09:15:27;;;;;;;;;;;;;;;;;;5050943;28;19974;-58
2022/01/17 09:17:53;;;;;;;;;;;;;;;;;;5051376;28;19921;-58
2022/01/17 09:20:19;;;;;;;;;;;;;;;;;;5051693;28;19924;-57
2022/01/17 09:22:45;;;;;;;;;;;;;;;;;;5050327;28;19990;-58
2022/01/17 09:25:12;;;;;;;;;;;;;;;;;;5051780;28;19924;-58
2022/01/17 09:27:38;;;;;;;;;;;;;;;;;;5051326;28;20272;-57
2022/01/17 09:30:04;;;;;;;;;;;;;;;;;;5050583;28;20103;-58
2022/01/17 09:32:30;;;;;;;;;;;;;;;;;;5051291;28;19929;-57
2022/01/17 09:34:56;;;;;;;;;;;;;;;;;;5051257;28;19920;-57
2022/01/17 09:37:22;;;;;;;;;;;;;;;;;;5050154;28;19921;-57
2022/01/17 09:39:48;;;;;;;;;;;;;;;;;;5050859;28;19974;-57
2022/01/17 09:42:14;;;;;;;;;;;;;;;;;;5051194;28;19925;-57
2022/01/17 09:44:40;;;;;;;;;;;;;;;;;;5050918;28;19921;-58
2022/01/17 09:47:06;;;;;;;;;;;;;;;;;;5051120;28;20006;-57
2022/01/17 09:49:37;;;;;;;;;;;;;;;;;;5051263;28;20401;-57
2022/01/17 09:52:06;;;;;;;;;;;;;;;;;;5050262;28;20303;-59
2022/01/17 09:54:35;;;;;;;;;;;;;;;;;;5051114;28;20312;-59
2022/01/17 09:57:06;;;;;;;;;;;;;;;;;;5050916;28;19924;-59
2022/01/17 09:59:32;;;;;;;;;;;;;;;;;;5051166;28;20548;-59
2022/01/17 10:01:58;;;;;;;;;;;;;;;;;;5050843;28;19967;-59
2022/01/17 10:04:24;;;;;;;;;;;;;;;;;;5050382;28;20402;-59
2022/01/17 10:06:50;;;;;;;;;;;;;;;;;;5053183;28;19925;-59
2022/01/17 10:09:17;;;;;;;;;;;;;;;;;;5054820;28;19971;-59
2022/01/17 10:11:43;;;;;;;;;;;;;;;;;;5053901;28;19963;-59
2022/01/17 10:14:10;;;;;;;;;;;;;;;;;;5054542;28;20326;-59
2022/01/17 10:16:36;;;;;;;;;;;;;;;;;;5054828;28;19974;-59
2022/01/17 10:19:03;;;;;;;;;;;;;;;;;;5053631;28;19924;-60
2022/01/17 10:21:31;;;;;;;;;;;;;;;;;;5054654;28;19927;-59
2022/01/17 10:27:01;;;;;;;;;;;;;;;;;;5053563;28;19928;-59
2022/01/17 10:34:58;;;;;;;;;;;;;;;;;;5053945;28;20268;-60
2022/01/17 10:37:24;;;;;;;;;;;;;;;;;;5054419;28;19925;-58
2022/01/17 10:39:50;;;;;;;;;;;;;;;;;;5053043;28;19920;-58
2022/01/17 10:42:16;;;;;;;;;;;;;;;;;;5054346;28;19921;-58
2022/01/17 10:44:43;;;;;;;;;;;;;;;;;;5053528;28;20010;-58
2022/01/17 10:47:09;;;;;;;;;;;;;;;;;;5053430;28;19963;-58
2022/01/17 10:49:35;;;;;;;;;;;;;;;;;;5053478;28;19929;-58
2022/01/17 10:52:01;;;;;;;;;;;;;;;;;;5053797;28;19925;-57
2022/01/17 10:54:27;;;;;;;;;;;;;;;;;;5053209;28;19974;-58
2022/01/17 10:56:53;;;;;;;;;;;;;;;;;;5053249;28;20015;-58
2022/01/17 10:59:20;;;;;;;;;;;;;;;;;;5053899;28;19929;-59
2022/01/17 11:01:46;;;;;;;;;;;;;;;;;;5052767;28;20399;-58
2022/01/17 11:04:12;;;;;;;;;;;;;;;;;;5053701;28;19924;-58
2022/01/17 11:06:38;;;;;;;;;;;;;;;;;;5053369;28;20352;-58
2022/01/17 11:09:04;;;;;;;;;;;;;;;;;;5052754;28;19921;-57
2022/01/17 11:11:30;;;;;;;;;;;;;;;;;;5053504;28;20364;-58
2022/01/17 11:13:59;;;;;;;;;;;;;;;;;;5053440;28;19979;-58
2022/01/17 11:16:25;;;;;;;;;;;;;;;;;;5052759;28;19932;-58
2022/01/17 11:18:57;;;;;;;;;;;;;;;;;;5053260;28;19928;-58
2022/01/17 11:21:24;;;;;;;;;;;;;;;;;;5053342;28;20367;-58
2022/01/17 11:23:50;;;;;;;;;;;;;;;;;;5052155;28;19932;-58
2022/01/17 11:26:16;;;;;;;;;;;;;;;;;;5053036;28;20379;-58
2022/01/17 11:28:42;;;;;;;;;;;;;;;;;;5052405;28;19947;-58
2022/01/17 11:31:08;;;;;;;;;;;;;;;;;;5053188;28;19921;-58
2022/01/17 11:33:34;;;;;;;;;;;;;;;;;;5053293;28;20007;-59
2022/01/17 11:36:00;;;;;;;;;;;;;;;;;;5051747;28;20364;-59
2022/01/17 11:38:26;;;;;;;;;;;;;;;;;;5053379;28;19925;-58
2022/01/17 11:40:52;;;;;;;;;;;;;;;;;;5052671;28;19920;-59
2022/01/17 11:43:18;;;;;;;;;;;;;;;;;;5052166;28;20260;-59
2022/01/17 11:45:44;;;;;;;;;;;;;;;;;;5052736;28;19967;-58
2022/01/17 11:48:11;;;;;;;;;;;;;;;;;;5052769;28;20605;-58
2022/01/17 11:50:41;;;;;;;;;;;;;;;;;;5051964;28;19928;-58
2022/01/17 11:53:07;;;;;;;;;;;;;;;;;;5052793;28;19985;-58
2022/01/17 11:55:33;;;;;;;;;;;;;;;;;;5052602;28;19925;-58
2022/01/17 11:57:59;;;;;;;;;;;;;;;;;;5051835;28;19920;-59
2022/01/17 12:00:26;;;;;;;;;;;;;;;;;;5052658;28;19978;-58
2022/01/17 12:02:52;;;;;;;;;;;;;;;;;;5052682;28;19924;-58
2022/01/17 12:05:18;;;;;;;;;;;;;;;;;;5051628;28;19951;-58
2022/01/17 12:07:44;;;;;;;;;;;;;;;;;;5052167;28;19920;-58
2022/01/17 12:10:10;;;;;;;;;;;;;;;;;;5052491;28;19924;-58
2022/01/17 12:12:37;;;;;;;;;;;;;;;;;;5051780;28;19935;-58
2022/01/17 12:15:06;;;;;;;;;;;;;;;;;;5052232;28;19929;-58
2022/01/17 12:17:32;;;;;;;;;;;;;;;;;;5052413;28;19964;-58
2022/01/17 12:19:58;;;;;;;;;;;;;;;;;;5051268;28;20260;-58
2022/01/17 12:22:24;;;;;;;;;;;;;;;;;;5052077;28;19974;-58
2022/01/17 12:24:50;;;;;;;;;;;;;;;;;;5051080;28;20344;-58
2022/01/17 12:27:16;;;;;;;;;;;;;;;;;;5052180;28;19921;-58
2022/01/17 12:29:42;;;;;;;;;;;;;;;;;;5051510;28;19921;-58
2022/01/17 12:32:09;;;;;;;;;;;;;;;;;;5051125;28;20528;-58
2022/01/17 12:34:35;;;;;;;;;;;;;;;;;;5052076;28;20287;-59
2022/01/17 12:37:01;;;;;;;;;;;;;;;;;;5052061;28;19983;-58
2022/01/17 12:39:27;;;;;;;;;;;;;;;;;;5051152;28;19921;-58
2022/01/17 12:41:53;;;;;;;;;;;;;;;;;;5051715;28;19974;-58
2022/01/17 12:44:19;;;;;;;;;;;;;;;;;;5052035;28;19920;-58
2022/01/17 12:46:45;;;;;;;;;;;;;;;;;;5050778;28;19924;-58
2022/01/17 12:49:11;;;;;;;;;;;;;;;;;;5052009;28;19921;-59
2022/01/17 12:51:37;;;;;;;;;;;;;;;;;;5052108;28;19982;-58
2022/01/17 12:54:03;;;;;;;;;;;;;;;;;;5050909;28;19921;-58
2022/01/17 12:56:29;;;;;;;;;;;;;;;;;;5051673;28;19943;-58
2022/01/17 12:58:55;;;;;;;;;;;;;;;;;;5051482;28;19975;-58
2022/01/17 13:01:22;;;;;;;;;;;;;;;;;;5050915;28;19920;-58
2022/01/17 13:03:49;;;;;;;;;;;;;;;;;;5051280;28;19966;-58
2022/01/17 13:06:16;;;;;;;;;;;;;;;;;;5051446;28;19967;-58
2022/01/17 13:08:42;;;;;;;;;;;;;;;;;;5050701;28;19932;-58
2022/01/17 13:11:08;;;;;;;;;;;;;;;;;;5051677;28;20338;-59
2022/01/17 13:13:34;;;;;;;;;;;;;;;;;;5051646;28;19920;-58
2022/01/17 13:16:00;;;;;;;;;;;;;;;;;;5050613;28;20328;-58
2022/01/17 13:18:26;;;;;;;;;;;;;;;;;;5051431;28;20021;-57
2022/01/17 13:20:52;;;;;;;;;;;;;;;;;;5051250;28;20429;-59
2022/01/17 13:23:27;;;;;;;;;;;;;;;;;;5050747;28;19974;-59
2022/01/17 13:25:53;;;;;;;;;;;;;;;;;;5051492;28;20306;-58
2022/01/17 13:28:19;;;;;;;;;;;;;;;;;;5050782;28;20015;-59
2022/01/17 13:30:45;;;;;;;;;;;;;;;;;;5051250;28;19920;-58
2022/01/17 13:33:11;;;;;;;;;;;;;;;;;;5051258;28;19946;-58
2022/01/17 13:35:43;;;;;;;;;;;;;;;;;;5050566;28;19921;-58
2022/01/17 13:38:09;;;;;;;;;;;;;;;;;;5051413;28;19931;-58
2022/01/17 13:40:35;;;;;;;;;;;;;;;;;;5052156;28;19925;-59
2022/01/17 13:43:01;;;;;;;;;;;;;;;;;;5053954;28;20395;-59
2022/01/17 13:45:27;;;;;;;;;;;;;;;;;;5055341;28;19924;-57
2022/01/17 13:47:54;;;;;;;;;;;;;;;;;;5055175;28;20363;-57
2022/01/17 13:50:20;;;;;;;;;;;;;;;;;;5054478;28;20038;-58
2022/01/17 13:52:46;;;;;;;;;;;;;;;;;;5054666;28;20383;-58
2022/01/17 13:55:12;;;;;;;;;;;;;;;;;;5054686;28;19921;-59
2022/01/17 13:57:38;;;;;;;;;;;;;;;;;;5053573;28;19975;-58
2022/01/17 14:00:04;;;;;;;;;;;;;;;;;;5054150;28;19921;-59
2022/01/17 14:02:30;;;;;;;;;;;;;;;;;;5054794;28;19925;-58
2022/01/17 14:04:56;;;;;;;;;;;;;;;;;;5053004;28;20360;-59
2022/01/17 14:07:22;;;;;;;;;;;;;;;;;;5054519;28;19966;-60
2022/01/17 14:09:48;;;;;;;;;;;;;;;;;;5054242;28;20368;-58
2022/01/17 14:12:15;;;;;;;;;;;;;;;;;;5054114;28;19920;-58
2022/01/17 14:14:41;;;;;;;;;;;;;;;;;;5054620;28;19998;-59
2022/01/17 14:17:07;;;;;;;;;;;;;;;;;;5054461;28;20004;-59
2022/01/17 14:19:33;;;;;;;;;;;;;;;;;;5052943;28;19921;-59
2022/01/17 14:21:59;;;;;;;;;;;;;;;;;;5053425;28;20308;-59
2022/01/17 14:24:25;;;;;;;;;;;;;;;;;;5052457;28;19946;-59
2022/01/17 14:26:51;;;;;;;;;;;;;;;;;;5052997;28;19924;-59
2022/01/17 14:29:18;;;;;;;;;;;;;;;;;;5053259;28;19929;-59
2022/01/17 14:31:44;;;;;;;;;;;;;;;;;;5052295;28;19925;-59
2022/01/17 14:34:11;;;;;;;;;;;;;;;;;;5050561;28;19951;-59
2022/01/17 14:36:37;;;;;;;;;;;;;;;;;;5053034;28;19921;-60
2022/01/17 14:39:05;;;;;;;;;;;;;;;;;;5051952;28;19979;-59
2022/01/17 14:41:34;;;;;;;;;;;;;;;;;;5049921;28;20291;-60
2022/01/17 14:44:00;;;;;;;;;;;;;;;;;;5052675;28;19920;-60
2022/01/17 14:46:26;;;;;;;;;;;;;;;;;;5052099;28;19921;-60
2022/01/17 14:48:52;;;;;;;;;;;;;;;;;;5052623;28;19974;-59
2022/01/17 14:51:19;;;;;;;;;;;;;;;;;;5052091;28;19978;-59
2022/01/17 14:53:47;;;;;;;;;;;;;;;;;;5051841;28;20029;-59
2022/01/17 14:59:30;;;;;;;;;;;;;;;;;;5050617;28;19938;-59
2022/01/17 15:02:02;;;;;;;;;;;;;;;;;;5050277;28;19924;-59
2022/01/17 15:04:33;;;;;;;;;;;;;;;;;;5052489;28;19924;-59
2022/01/17 15:06:59;;;;;;;;;;;;;;;;;;5050759;28;19920;-59
2022/01/17 15:09:25;;;;;;;;;;;;;;;;;;5052571;28;19990;-59
2022/01/17 15:11:51;;;;;;;;;;;;;;;;;;5052164;28;19990;-59
2022/01/17 15:14:17;;;;;;;;;;;;;;;;;;5051613;28;19920;-59
2022/01/17 15:16:43;;;;;;;;;;;;;;;;;;5052067;28;19921;-59
2022/01/17 15:19:09;;;;;;;;;;;;;;;;;;5052144;28;20333;-58
2022/01/17 15:21:35;;;;;;;;;;;;;;;;;;5051432;28;19928;-59
2022/01/17 15:24:02;;;;;;;;;;;;;;;;;;5052106;28;20090;-59
2022/01/17 15:26:28;;;;;;;;;;;;;;;;;;5051935;28;19929;-59
2022/01/17 15:28:54;;;;;;;;;;;;;;;;;;5051200;28;19990;-59
2022/01/17 15:31:20;;;;;;;;;;;;;;;;;;5051997;28;19920;-59
2022/01/17 15:33:47;;;;;;;;;;;;;;;;;;5051866;28;19924;-58
2022/01/17 15:36:13;;;;;;;;;;;;;;;;;;5050723;28;20371;-58
2022/01/17 15:38:41;;;;;;;;;;;;;;;;;;5051926;28;19974;-59
2022/01/17 15:41:09;;;;;;;;;;;;;;;;;;5051761;28;19929;-60
2022/01/17 15:43:35;;;;;;;;;;;;;;;;;;5051113;28;19920;-60
2022/01/17 15:46:01;;;;;;;;;;;;;;;;;;5052485;28;19924;-59
2022/01/17 15:48:27;;;;;;;;;;;;;;;;;;5052104;28;19920;-58
2022/01/17 15:50:53;;;;;;;;;;;;;;;;;;5051473;28;19920;-58
2022/01/17 15:53:19;;;;;;;;;;;;;;;;;;5052246;28;19925;-59
2022/01/17 15:55:45;;;;;;;;;;;;;;;;;;5050570;28;19976;-58
2022/01/17 15:58:12;;;;;;;;;;;;;;;;;;5050984;28;19967;-58
2022/01/17 16:00:38;;;;;;;;;;;;;;;;;;5052465;28;19921;-59
2022/01/17 16:03:04;;;;;;;;;;;;;;;;;;5049831;28;19921;-59
2022/01/17 16:05:32;;;;;;;;;;;;;;;;;;5052159;28;20372;-59
2022/01/17 16:07:58;;;;;;;;;;;;;;;;;;5052310;28;20334;-58
2022/01/17 16:10:24;;;;;;;;;;;;;;;;;;5051721;28;20187;-58
2022/01/17 16:12:50;;;;;;;;;;;;;;;;;;5051052;28;19924;-60
2022/01/17 16:15:16;;;;;;;;;;;;;;;;;;5052294;28;19982;-59
2022/01/17 16:17:42;;;;;;;;;;;;;;;;;;5051106;28;19921;-60
2022/01/17 16:20:08;;;;;;;;;;;;;;;;;;5052064;28;19921;-60
2022/01/17 16:22:34;;;;;;;;;;;;;;;;;;5052094;28;19968;-60
2022/01/17 16:25:01;;;;;;;;;;;;;;;;;;5051161;28;20265;-59
2022/01/17 16:27:27;;;;;;;;;;;;;;;;;;5052081;28;19920;-61
2022/01/17 16:29:53;;;;;;;;;;;;;;;;;;5051834;28;19989;-59
2022/01/17 16:32:19;;;;;;;;;;;;;;;;;;5049305;28;20272;-59
2022/01/17 16:34:45;;;;;;;;;;;;;;;;;;5051577;28;19978;-58
2022/01/17 16:37:12;;;;;;;;;;;;;;;;;;5051960;28;20375;-59
2022/01/17 16:39:38;;;;;;;;;;;;;;;;;;5051257;28;20019;-59
2022/01/17 16:42:04;;;;;;;;;;;;;;;;;;5051316;28;19928;-59
2022/01/17 16:44:30;;;;;;;;;;;;;;;;;;5051821;28;19924;-59
2022/01/17 16:46:57;;;;;;;;;;;;;;;;;;5036369;28;19921;-59
2022/01/17 16:49:24;;;;;;;;;;;;;;;;;;5031915;28;20063;-59
2022/01/17 16:51:50;;;;;;;;;;;;;;;;;;5031602;28;19955;-59
2022/01/17 16:54:16;;;;;;;;;;;;;;;;;;5030665;28;20339;-60
2022/01/17 16:56:42;;;;;;;;;;;;;;;;;;5031691;28;19925;-61
2022/01/17 16:59:08;;;;;;;;;;;;;;;;;;5030788;28;19967;-60
2022/01/17 17:01:34;;;;;;;;;;;;;;;;;;5051074;28;19925;-60
2022/01/17 17:04:01;;;;;;;;;;;;;;;;;;5051137;28;19925;-61